Latest Weather Observations for Bickley

IDW60801

Issued at 8:05 pm WST Monday 24 November 2014 (issued every 30 minutes, with the page automatically refreshed every 10 minutes)

About weather observations | Map of weather stations | Latest weather observations for WA | Other Formats
Station Details ID: 009240 Name: BICKLEY Lat: -32.01 Lon: 116.14 Height: 384.0 m
Data from the previous 72 hours. | See also: Recent months at Bickley
Date/Time
WST
Temp
°C
App
Temp
°C
Dew
Point
Rel
Hum
%
Delta-T
°C
Wind Press
QNH
hPa
Press
MSL
hPa
Rain
since 9 am
mm
Dir
 
Spd
km/h
Gust
km/h
Spd
kts
Gust
kts
24/08:00pm 16.6 - 10.0 65 3.5 - - - - - - - 0.0
24/07:30pm 17.3 - 10.2 63 3.8 - - - - - - - 0.0
24/07:00pm 18.3 - 10.2 59 4.4 - - - - - - - 0.0
24/06:30pm 20.0 - 9.6 51 5.6 - - - - - - - 0.0
24/06:00pm 21.8 - 10.0 47 6.5 - - - - - - - 0.0
24/05:30pm 24.3 - 3.6 26 10.3 - - - - - - - 0.0
24/05:00pm 24.8 - 4.5 27 10.3 - - - - - - - 0.0
24/04:30pm 24.8 - 5.1 28 10.1 - - - - - - - 0.0
24/04:00pm 25.0 - 4.7 27 10.4 - - - - - - - 0.0
24/03:30pm 24.6 - 3.8 26 10.4 - - - - - - - 0.0
24/03:00pm 24.4 - 4.7 28 10.0 - - - - - - - 0.0
24/02:30pm 24.6 - 5.4 29 9.9 - - - - - - - 0.0
24/02:00pm 23.7 - 5.6 31 9.3 - - - - - - - 0.0
24/01:30pm 23.2 - 4.7 30 9.3 - - - - - - - 0.0
24/01:00pm 22.6 - 5.1 32 8.9 - - - - - - - 0.0
24/12:30pm 22.5 - 5.9 34 8.5 - - - - - - - 0.0
24/12:00pm 21.6 - 6.3 37 7.9 - - - - - - - 0.0
24/11:30am 21.0 - 6.9 40 7.3 - - - - - - - 0.0
24/11:00am 20.0 - 7.1 43 6.7 - - - - - - - 0.0
24/10:30am 18.4 - 5.9 44 6.3 - - - - - - - 0.0
24/10:00am 17.7 - 6.3 47 5.7 - - - - - - - 0.0
24/09:30am 16.6 - 5.6 48 5.4 - - - - - - - 0.0
24/09:00am 15.7 - 5.9 52 4.8 - - - - - - - 0.0
24/08:30am 14.5 - 5.0 53 4.5 - - - - - - - 0.0
24/08:00am 13.6 - 5.5 58 3.9 - - - - - - - 0.0
24/07:30am 12.6 - 5.3 61 3.5 - - - - - - - 0.0
24/07:00am 11.6 - 5.7 67 2.8 - - - - - - - 0.0
24/06:30am 10.3 - 5.1 70 2.4 - - - - - - - 0.0
24/06:00am 9.3 - 4.7 73 2.1 - - - - - - - 0.0
24/05:30am 8.5 - 4.3 75 1.9 - - - - - - - 0.0
24/05:00am 8.5 - 4.1 74 2.0 - - - - - - - 0.0
24/04:30am 8.8 - 4.0 72 2.1 - - - - - - - 0.0
24/04:00am 9.0 - 4.0 71 2.2 - - - - - - - 0.0
24/03:30am 9.0 - 4.0 71 2.2 - - - - - - - 0.0
24/03:00am 9.2 - 4.2 71 2.3 - - - - - - - 0.0
24/02:30am 9.3 - 4.3 71 2.3 - - - - - - - 0.0
24/02:00am 9.7 - 4.3 69 2.4 - - - - - - - 0.0
24/01:30am 9.8 - 4.8 71 2.3 - - - - - - - 0.0
24/01:00am 10.4 - 5.2 70 2.4 - - - - - - - 0.0
24/12:30am 10.9 - 5.9 71 2.4 - - - - - - - 0.0
24/12:00am 11.0 - 7.3 78 1.8 - - - - - - - 0.0
 
Date/Time
WST
Temp
°C
App
Temp
°C
Dew
Point
Rel
Hum
%
Delta-T
°C
Wind Press
QNH
hPa
Press
MSL
hPa
Rain
since 9 am
mm
Dir
 
Spd
km/h
Gust
km/h
Spd
kts
Gust
kts
23/11:30pm 11.5 - 8.0 79 1.7 - - - - - - - 0.0
23/11:00pm 11.6 - 8.1 79 1.7 - - - - - - - 0.0
23/10:30pm 11.9 - 8.2 78 1.9 - - - - - - - 0.0
23/10:00pm 12.3 - 8.4 77 2.0 - - - - - - - 0.0
23/09:30pm 12.5 - 8.4 76 2.1 - - - - - - - 0.0
23/09:00pm 13.0 - 8.7 75 2.2 - - - - - - - 0.0
23/08:30pm 13.1 - 8.6 74 2.3 - - - - - - - 0.0
23/08:00pm 13.6 - 8.4 71 2.7 - - - - - - - 0.0
23/07:30pm 14.2 - 8.6 69 2.9 - - - - - - - 0.0
23/07:00pm 14.7 - 8.4 66 3.2 - - - - - - - 0.0
23/06:30pm 15.6 - 7.9 60 3.9 - - - - - - - 0.0
23/06:00pm 16.8 - 7.7 55 4.7 - - - - - - - 0.0
23/05:30pm 17.7 - 8.3 54 4.9 - - - - - - - 0.0
23/05:00pm 17.7 - 8.0 53 5.0 - - - - - - - 0.0
23/04:30pm 18.9 - 9.1 53 5.2 - - - - - - - 0.0
23/04:00pm 19.1 - 9.0 52 5.4 - - - - - - - 0.0
23/03:30pm 19.5 - 9.1 51 5.6 - - - - - - - 0.0
23/03:00pm 19.5 - 9.1 51 5.6 - - - - - - - 0.0
23/02:30pm 20.1 - 9.7 51 5.7 - - - - - - - 0.0
23/02:00pm 20.6 - 9.2 48 6.2 - - - - - - - 0.0
23/01:30pm 20.6 - 9.8 50 5.9 - - - - - - - 0.0
23/01:00pm 19.3 - 9.5 53 5.3 - - - - - - - 0.0
23/12:30pm 18.5 - 9.8 57 4.7 - - - - - - - 0.0
23/12:00pm 18.7 - 9.8 56 4.8 - - - - - - - 0.0
23/11:30am 17.8 - 8.9 56 4.7 - - - - - - - 0.0
23/11:00am 18.9 - 10.7 59 4.5 - - - - - - - 0.0
23/10:30am 17.9 - 10.5 62 4.0 - - - - - - - 0.0
23/10:00am 16.4 - 10.5 68 3.2 - - - - - - - 0.0
23/09:30am 16.5 - 9.0 61 3.9 - - - - - - - 0.0
23/09:00am 17.0 - 10.1 64 3.7 - - - - - - - 0.0
23/08:30am 16.6 - 9.8 64 3.6 - - - - - - - 0.0
23/08:00am 15.3 - 11.1 76 2.3 - - - - - - - 0.0
23/07:30am 14.2 - 10.6 79 1.9 - - - - - - - 0.0
23/07:00am 15.1 - 10.3 73 2.6 - - - - - - - 0.0
23/06:30am 13.9 - 9.7 76 2.2 - - - - - - - 0.0
23/06:00am 12.7 - 9.0 78 1.9 - - - - - - - 0.0
23/05:30am 11.3 - 8.0 80 1.6 - - - - - - - 0.0
23/05:00am 11.0 - 7.3 78 1.8 - - - - - - - 0.0
23/04:30am 12.0 - 7.3 73 2.3 - - - - - - - 0.0
23/04:00am 12.2 - 7.7 74 2.2 - - - - - - - 0.0
23/03:30am 12.8 - 9.1 78 1.9 - - - - - - - 0.0
23/03:00am 12.5 - 9.0 79 1.8 - - - - - - - 0.0
23/02:30am 12.0 - 8.3 78 1.9 - - - - - - - 0.0
23/02:00am 12.5 - 8.6 77 2.0 - - - - - - - 0.0
23/01:30am 12.8 - 9.8 82 1.6 - - - - - - - 0.0
23/01:00am 12.9 - 10.8 87 1.1 - - - - - - - 0.0
23/12:30am 13.0 - 11.4 90 0.9 - - - - - - - 0.0
23/12:00am 12.7 - 11.6 93 0.6 - - - - - - - 0.0
 
Date/Time
WST
Temp
°C
App
Temp
°C
Dew
Point
Rel
Hum
%
Delta-T
°C
Wind Press
QNH
hPa
Press
MSL
hPa
Rain
since 9 am
mm
Dir
 
Spd
km/h
Gust
km/h
Spd
kts
Gust
kts
22/11:30pm 13.3 - 12.0 92 0.7 - - - - - - - 0.0
22/11:00pm 12.9 - 12.0 94 0.5 - - - - - - - 0.0
22/10:30pm 12.9 - 12.0 94 0.5 - - - - - - - 0.0
22/10:00pm 13.0 - 12.1 94 0.5 - - - - - - - 0.0
22/09:30pm 12.9 - 12.0 94 0.5 - - - - - - - 0.0
22/09:00pm 13.4 - 11.8 90 0.9 - - - - - - - 0.0
22/08:30pm 14.0 - 12.0 88 1.1 - - - - - - - 0.0
22/08:00pm 14.1 - 12.0 87 1.2 - - - - - - - 0.0
22/07:30pm 14.0 - 11.7 86 1.3 - - - - - - - 0.0
22/07:00pm 14.6 - 11.0 79 1.9 - - - - - - - 0.0
22/06:30pm 15.8 - 11.0 73 2.6 - - - - - - - 0.0
22/06:00pm 16.1 - 10.6 70 3.0 - - - - - - - 0.0
22/05:30pm 17.0 - 10.1 64 3.7 - - - - - - - 0.0
22/05:00pm 17.9 - 9.0 56 4.7 - - - - - - - 0.0
22/04:30pm 18.2 - 9.3 56 4.8 - - - - - - - 0.0
22/04:00pm 18.4 - 9.7 57 4.7 - - - - - - - 0.0
22/03:30pm 19.2 - 9.7 54 5.1 - - - - - - - 0.0
22/03:00pm 19.8 - 9.7 52 5.5 - - - - - - - 0.0
22/02:30pm 20.1 - 9.7 51 5.7 - - - - - - - 0.0
22/02:00pm 20.1 - 10.2 53 5.4 - - - - - - - 0.0
22/01:30pm 18.6 - 9.7 56 4.8 - - - - - - - 0.0
22/01:00pm 19.6 - 10.9 57 4.8 - - - - - - - 0.0
22/12:30pm 18.9 - 10.5 58 4.6 - - - - - - - 0.0
22/12:00pm 18.1 - 10.2 60 4.3 - - - - - - - 0.0
22/11:30am 18.1 - 11.0 63 3.9 - - - - - - - 0.0
22/11:00am 17.2 - 11.9 71 3.0 - - - - - - - 0.0
22/10:30am 16.1 - 11.3 73 2.6 - - - - - - - 0.0
22/10:00am 15.6 - 11.8 78 2.1 - - - - - - - 0.0
22/09:30am 16.3 - 10.8 70 3.0 - - - - - - - 0.0
22/09:00am 16.2 - 10.9 71 2.9 - - - - - - - 0.4
22/08:30am 15.4 - 11.0 75 2.4 - - - - - - - 0.4
22/08:00am 14.3 - 12.9 91 0.8 - - - - - - - 0.4
22/07:30am 13.4 - 12.5 94 0.5 - - - - - - - 0.4
22/07:00am 13.4 - 12.3 93 0.6 - - - - - - - 0.2
22/06:30am 12.9 - 12.7 99 0.1 - - - - - - - 0.2
22/06:00am 12.3 - 12.1 99 0.1 - - - - - - - 0.2
22/05:30am 12.2 - 12.0 99 0.1 - - - - - - - 0.2
22/05:00am 12.3 - 12.1 99 0.1 - - - - - - - 0.2
22/04:30am 12.1 - 11.6 97 0.3 - - - - - - - 0.0
22/04:00am 11.9 - 10.8 93 0.6 - - - - - - - 0.0
22/03:30am 11.8 - 10.5 92 0.7 - - - - - - - 0.0
22/03:00am 12.3 - 10.7 90 0.8 - - - - - - - 0.0
22/02:30am 12.3 - 11.0 92 0.7 - - - - - - - 0.0
22/02:00am 12.5 - 11.7 95 0.4 - - - - - - - 0.0
22/01:30am 12.8 - 11.5 92 0.7 - - - - - - - 0.0
22/01:00am 12.2 - 10.8 91 0.7 - - - - - - - 0.0
22/12:30am 12.8 - 11.0 89 1.0 - - - - - - - 0.0
22/12:00am 12.8 - 11.4 91 0.8 - - - - - - - 0.0
 
Date/Time
WST
Temp
°C
App
Temp
°C
Dew
Point
Rel
Hum
%
Delta-T
°C
Wind Press
QNH
hPa
Press
MSL
hPa
Rain
since 9 am
mm
Dir
 
Spd
km/h
Gust
km/h
Spd
kts
Gust
kts
21/11:30pm 12.6 - 11.2 91 0.8 - - - - - - - 0.0
21/11:00pm 13.2 - 11.4 89 1.0 - - - - - - - 0.0
21/10:30pm 12.8 - 11.0 89 1.0 - - - - - - - 0.0
21/10:00pm 13.5 - 11.4 87 1.1 - - - - - - - 0.0
21/09:30pm 13.9 - 11.2 84 1.5 - - - - - - - 0.0
21/09:00pm 13.8 - 10.0 78 2.0 - - - - - - - 0.0
21/08:30pm 13.6 - 10.0 79 1.9 - - - - - - - 0.0

Other Formats:

Comma delimited format used in spreadsheet applications
http://www.bom.gov.au/fwo/IDW60801/IDW60801.95610.axf

JavaScript Object Notation format (JSON) in row-major order
http://www.bom.gov.au/fwo/IDW60801/IDW60801.95610.json